sensor_id;sensor_type;location;lat;lon;timestamp;P1;durP1;ratioP1;P2;durP2;ratioP2
8831;SDS011;4452;50.756;4.472;2024-01-06T00:01:31;0.70;;;0.70;;
8831;SDS011;4452;50.756;4.472;2024-01-06T00:03:56;0.60;;;0.60;;
8831;SDS011;4452;50.756;4.472;2024-01-06T00:06:23;0.60;;;0.60;;
8831;SDS011;4452;50.756;4.472;2024-01-06T00:08:50;0.63;;;0.63;;
8831;SDS011;4452;50.756;4.472;2024-01-06T00:11:22;1.60;;;1.50;;
8831;SDS011;4452;50.756;4.472;2024-01-06T00:13:48;0.60;;;0.60;;
8831;SDS011;4452;50.756;4.472;2024-01-06T00:16:16;0.77;;;0.77;;
8831;SDS011;4452;50.756;4.472;2024-01-06T00:18:43;0.50;;;0.50;;
8831;SDS011;4452;50.756;4.472;2024-01-06T00:21:09;0.63;;;0.63;;
8831;SDS011;4452;50.756;4.472;2024-01-06T00:23:35;1.60;;;1.20;;
8831;SDS011;4452;50.756;4.472;2024-01-06T00:26:01;0.52;;;0.52;;
8831;SDS011;4452;50.756;4.472;2024-01-06T00:28:27;0.60;;;0.60;;
8831;SDS011;4452;50.756;4.472;2024-01-06T00:30:53;0.57;;;0.57;;
8831;SDS011;4452;50.756;4.472;2024-01-06T00:33:18;0.93;;;0.93;;
8831;SDS011;4452;50.756;4.472;2024-01-06T00:35:44;2.90;;;1.50;;
8831;SDS011;4452;50.756;4.472;2024-01-06T00:38:10;0.52;;;0.52;;
8831;SDS011;4452;50.756;4.472;2024-01-06T00:40:35;0.60;;;0.60;;
8831;SDS011;4452;50.756;4.472;2024-01-06T00:43:02;0.85;;;0.85;;
8831;SDS011;4452;50.756;4.472;2024-01-06T00:45:27;0.60;;;0.60;;
8831;SDS011;4452;50.756;4.472;2024-01-06T00:47:53;2.95;;;1.27;;
8831;SDS011;4452;50.756;4.472;2024-01-06T00:50:19;0.65;;;0.65;;
8831;SDS011;4452;50.756;4.472;2024-01-06T00:52:45;0.47;;;0.47;;
8831;SDS011;4452;50.756;4.472;2024-01-06T00:55:10;0.75;;;0.75;;
8831;SDS011;4452;50.756;4.472;2024-01-06T00:57:36;0.73;;;0.73;;
8831;SDS011;4452;50.756;4.472;2024-01-06T01:00:03;0.60;;;0.60;;
8831;SDS011;4452;50.756;4.472;2024-01-06T01:02:30;0.93;;;0.93;;
8831;SDS011;4452;50.756;4.472;2024-01-06T01:04:56;3.92;;;1.15;;
8831;SDS011;4452;50.756;4.472;2024-01-06T01:07:23;0.75;;;0.75;;
8831;SDS011;4452;50.756;4.472;2024-01-06T01:09:49;0.60;;;0.60;;
8831;SDS011;4452;50.756;4.472;2024-01-06T01:12:15;0.88;;;0.88;;
8831;SDS011;4452;50.756;4.472;2024-01-06T01:14:40;0.50;;;0.50;;
8831;SDS011;4452;50.756;4.472;2024-01-06T01:17:06;0.88;;;0.88;;
8831;SDS011;4452;50.756;4.472;2024-01-06T01:19:32;0.47;;;0.47;;
8831;SDS011;4452;50.756;4.472;2024-01-06T01:21:57;0.55;;;0.55;;
8831;SDS011;4452;50.756;4.472;2024-01-06T01:24:23;0.50;;;0.50;;
8831;SDS011;4452;50.756;4.472;2024-01-06T01:26:49;0.68;;;0.68;;
8831;SDS011;4452;50.756;4.472;2024-01-06T01:29:16;0.95;;;0.95;;
8831;SDS011;4452;50.756;4.472;2024-01-06T01:31:42;0.43;;;0.43;;
8831;SDS011;4452;50.756;4.472;2024-01-06T01:34:07;0.95;;;0.95;;
8831;SDS011;4452;50.756;4.472;2024-01-06T01:36:33;0.80;;;0.80;;
8831;SDS011;4452;50.756;4.472;2024-01-06T01:38:59;0.63;;;0.63;;
8831;SDS011;4452;50.756;4.472;2024-01-06T01:41:25;0.80;;;0.80;;
8831;SDS011;4452;50.756;4.472;2024-01-06T01:43:50;2.60;;;1.88;;
8831;SDS011;4452;50.756;4.472;2024-01-06T01:46:24;0.93;;;0.93;;
8831;SDS011;4452;50.756;4.472;2024-01-06T01:48:51;0.60;;;0.60;;
8831;SDS011;4452;50.756;4.472;2024-01-06T01:51:20;0.68;;;0.68;;
8831;SDS011;4452;50.756;4.472;2024-01-06T01:53:46;0.57;;;0.57;;
8831;SDS011;4452;50.756;4.472;2024-01-06T01:56:12;0.85;;;0.85;;
8831;SDS011;4452;50.756;4.472;2024-01-06T01:58:38;0.60;;;0.60;;
8831;SDS011;4452;50.756;4.472;2024-01-06T02:01:06;0.50;;;0.50;;
8831;SDS011;4452;50.756;4.472;2024-01-06T02:03:32;0.50;;;0.50;;
8831;SDS011;4452;50.756;4.472;2024-01-06T02:05:58;0.60;;;0.60;;
8831;SDS011;4452;50.756;4.472;2024-01-06T02:08:24;0.60;;;0.60;;
8831;SDS011;4452;50.756;4.472;2024-01-06T02:10:50;0.50;;;0.50;;
8831;SDS011;4452;50.756;4.472;2024-01-06T02:13:15;0.55;;;0.55;;
8831;SDS011;4452;50.756;4.472;2024-01-06T02:15:41;0.50;;;0.50;;
8831;SDS011;4452;50.756;4.472;2024-01-06T02:18:07;0.52;;;0.52;;
8831;SDS011;4452;50.756;4.472;2024-01-06T02:20:32;1.02;;;1.02;;
8831;SDS011;4452;50.756;4.472;2024-01-06T02:22:58;2.17;;;1.02;;
8831;SDS011;4452;50.756;4.472;2024-01-06T02:25:25;0.70;;;0.70;;
8831;SDS011;4452;50.756;4.472;2024-01-06T02:27:51;0.98;;;0.98;;
8831;SDS011;4452;50.756;4.472;2024-01-06T02:30:17;0.45;;;0.45;;
8831;SDS011;4452;50.756;4.472;2024-01-06T02:32:42;0.77;;;0.77;;
8831;SDS011;4452;50.756;4.472;2024-01-06T02:35:08;0.52;;;0.52;;
8831;SDS011;4452;50.756;4.472;2024-01-06T02:37:34;1.30;;;1.20;;
8831;SDS011;4452;50.756;4.472;2024-01-06T02:39:59;0.57;;;0.57;;
8831;SDS011;4452;50.756;4.472;2024-01-06T02:42:25;0.40;;;0.40;;
8831;SDS011;4452;50.756;4.472;2024-01-06T02:44:51;0.50;;;0.50;;
8831;SDS011;4452;50.756;4.472;2024-01-06T02:47:17;0.63;;;0.63;;
8831;SDS011;4452;50.756;4.472;2024-01-06T02:49:43;0.75;;;0.75;;
8831;SDS011;4452;50.756;4.472;2024-01-06T02:52:08;0.40;;;0.40;;
8831;SDS011;4452;50.756;4.472;2024-01-06T02:54:34;7.75;;;1.65;;
8831;SDS011;4452;50.756;4.472;2024-01-06T02:57:00;0.47;;;0.47;;
8831;SDS011;4452;50.756;4.472;2024-01-06T02:59:28;0.45;;;0.45;;
8831;SDS011;4452;50.756;4.472;2024-01-06T03:01:54;0.47;;;0.47;;
8831;SDS011;4452;50.756;4.472;2024-01-06T03:04:20;1.35;;;0.95;;
8831;SDS011;4452;50.756;4.472;2024-01-06T03:06:45;0.40;;;0.40;;
8831;SDS011;4452;50.756;4.472;2024-01-06T03:09:16;0.65;;;0.65;;
8831;SDS011;4452;50.756;4.472;2024-01-06T03:11:43;11.90;;;1.55;;
8831;SDS011;4452;50.756;4.472;2024-01-06T03:14:09;0.40;;;0.40;;
8831;SDS011;4452;50.756;4.472;2024-01-06T03:16:34;0.40;;;0.40;;
8831;SDS011;4452;50.756;4.472;2024-01-06T03:19:00;0.52;;;0.52;;
8831;SDS011;4452;50.756;4.472;2024-01-06T03:21:26;0.40;;;0.40;;
8831;SDS011;4452;50.756;4.472;2024-01-06T03:23:51;0.40;;;0.40;;
8831;SDS011;4452;50.756;4.472;2024-01-06T03:26:17;0.40;;;0.40;;
8831;SDS011;4452;50.756;4.472;2024-01-06T03:28:43;0.40;;;0.40;;
8831;SDS011;4452;50.756;4.472;2024-01-06T03:31:09;0.40;;;0.40;;
8831;SDS011;4452;50.756;4.472;2024-01-06T03:33:34;0.55;;;0.55;;
8831;SDS011;4452;50.756;4.472;2024-01-06T03:36:04;0.45;;;0.45;;
8831;SDS011;4452;50.756;4.472;2024-01-06T03:38:31;0.47;;;0.47;;
8831;SDS011;4452;50.756;4.472;2024-01-06T03:40:57;0.43;;;0.43;;
8831;SDS011;4452;50.756;4.472;2024-01-06T03:43:23;0.40;;;0.40;;
8831;SDS011;4452;50.756;4.472;2024-01-06T03:45:48;0.60;;;0.60;;
8831;SDS011;4452;50.756;4.472;2024-01-06T03:48:14;0.50;;;0.50;;
8831;SDS011;4452;50.756;4.472;2024-01-06T03:50:40;0.52;;;0.47;;
8831;SDS011;4452;50.756;4.472;2024-01-06T03:53:05;0.65;;;0.65;;
8831;SDS011;4452;50.756;4.472;2024-01-06T03:55:31;0.43;;;0.43;;
8831;SDS011;4452;50.756;4.472;2024-01-06T03:57:57;0.50;;;0.50;;
8831;SDS011;4452;50.756;4.472;2024-01-06T04:00:24;3.42;;;1.30;;
8831;SDS011;4452;50.756;4.472;2024-01-06T04:02:50;0.90;;;0.70;;
8831;SDS011;4452;50.756;4.472;2024-01-06T04:05:16;0.43;;;0.43;;
8831;SDS011;4452;50.756;4.472;2024-01-06T04:07:42;0.60;;;0.60;;
8831;SDS011;4452;50.756;4.472;2024-01-06T04:10:08;1.13;;;1.00;;
8831;SDS011;4452;50.756;4.472;2024-01-06T04:12:33;1.02;;;1.02;;
8831;SDS011;4452;50.756;4.472;2024-01-06T04:14:59;0.75;;;0.75;;
8831;SDS011;4452;50.756;4.472;2024-01-06T04:17:25;2.10;;;1.25;;
8831;SDS011;4452;50.756;4.472;2024-01-06T04:19:51;5.47;;;2.35;;
8831;SDS011;4452;50.756;4.472;2024-01-06T04:22:17;0.80;;;0.80;;
8831;SDS011;4452;50.756;4.472;2024-01-06T04:24:43;1.08;;;1.08;;
8831;SDS011;4452;50.756;4.472;2024-01-06T04:27:09;0.95;;;0.95;;
8831;SDS011;4452;50.756;4.472;2024-01-06T04:29:35;0.95;;;0.95;;
8831;SDS011;4452;50.756;4.472;2024-01-06T04:32:00;1.92;;;1.30;;
8831;SDS011;4452;50.756;4.472;2024-01-06T04:34:26;0.88;;;0.88;;
8831;SDS011;4452;50.756;4.472;2024-01-06T04:36:52;2.78;;;1.88;;
8831;SDS011;4452;50.756;4.472;2024-01-06T04:39:17;1.75;;;1.65;;
8831;SDS011;4452;50.756;4.472;2024-01-06T04:41:43;0.93;;;0.93;;
8831;SDS011;4452;50.756;4.472;2024-01-06T04:44:09;1.60;;;1.60;;
8831;SDS011;4452;50.756;4.472;2024-01-06T04:46:34;1.63;;;1.52;;
8831;SDS011;4452;50.756;4.472;2024-01-06T04:49:00;0.93;;;0.93;;
8831;SDS011;4452;50.756;4.472;2024-01-06T04:51:26;1.48;;;1.40;;
8831;SDS011;4452;50.756;4.472;2024-01-06T04:53:52;1.10;;;1.10;;
8831;SDS011;4452;50.756;4.472;2024-01-06T04:56:17;2.30;;;2.20;;
8831;SDS011;4452;50.756;4.472;2024-01-06T04:58:43;2.15;;;1.55;;
8831;SDS011;4452;50.756;4.472;2024-01-06T05:01:09;1.13;;;1.13;;
8831;SDS011;4452;50.756;4.472;2024-01-06T05:03:35;4.25;;;2.63;;
8831;SDS011;4452;50.756;4.472;2024-01-06T05:06:01;1.67;;;1.63;;
8831;SDS011;4452;50.756;4.472;2024-01-06T05:08:26;1.10;;;1.10;;
8831;SDS011;4452;50.756;4.472;2024-01-06T05:10:52;1.40;;;1.35;;
8831;SDS011;4452;50.756;4.472;2024-01-06T05:13:19;1.55;;;1.45;;
8831;SDS011;4452;50.756;4.472;2024-01-06T05:15:44;1.42;;;1.33;;
8831;SDS011;4452;50.756;4.472;2024-01-06T05:18:10;1.27;;;1.27;;
8831;SDS011;4452;50.756;4.472;2024-01-06T05:20:36;1.15;;;1.15;;
8831;SDS011;4452;50.756;4.472;2024-01-06T05:23:01;1.35;;;1.35;;
8831;SDS011;4452;50.756;4.472;2024-01-06T05:25:27;1.30;;;1.30;;
8831;SDS011;4452;50.756;4.472;2024-01-06T05:27:53;1.92;;;1.77;;
8831;SDS011;4452;50.756;4.472;2024-01-06T05:30:19;1.75;;;1.65;;
8831;SDS011;4452;50.756;4.472;2024-01-06T05:32:44;1.77;;;1.67;;
8831;SDS011;4452;50.756;4.472;2024-01-06T05:35:10;1.45;;;1.45;;
8831;SDS011;4452;50.756;4.472;2024-01-06T05:37:35;0.93;;;0.93;;
8831;SDS011;4452;50.756;4.472;2024-01-06T05:40:01;1.00;;;1.00;;
8831;SDS011;4452;50.756;4.472;2024-01-06T05:42:29;1.38;;;1.25;;
8831;SDS011;4452;50.756;4.472;2024-01-06T05:44:54;1.40;;;1.38;;
8831;SDS011;4452;50.756;4.472;2024-01-06T05:47:20;1.02;;;1.02;;
8831;SDS011;4452;50.756;4.472;2024-01-06T05:49:46;2.70;;;1.40;;
8831;SDS011;4452;50.756;4.472;2024-01-06T05:52:11;6.15;;;4.65;;
8831;SDS011;4452;50.756;4.472;2024-01-06T05:54:40;1.30;;;1.30;;
8831;SDS011;4452;50.756;4.472;2024-01-06T05:57:09;1.02;;;0.93;;
8831;SDS011;4452;50.756;4.472;2024-01-06T05:59:35;1.42;;;1.42;;
8831;SDS011;4452;50.756;4.472;2024-01-06T06:02:01;0.77;;;0.77;;
8831;SDS011;4452;50.756;4.472;2024-01-06T06:04:27;0.85;;;0.85;;
8831;SDS011;4452;50.756;4.472;2024-01-06T06:06:52;1.15;;;1.15;;
8831;SDS011;4452;50.756;4.472;2024-01-06T06:09:18;0.52;;;0.52;;
8831;SDS011;4452;50.756;4.472;2024-01-06T06:11:45;0.98;;;0.88;;
8831;SDS011;4452;50.756;4.472;2024-01-06T06:14:11;1.08;;;1.08;;
8831;SDS011;4452;50.756;4.472;2024-01-06T06:16:38;3.20;;;0.95;;
8831;SDS011;4452;50.756;4.472;2024-01-06T06:19:03;1.45;;;1.45;;
8831;SDS011;4452;50.756;4.472;2024-01-06T06:21:29;1.83;;;1.73;;
8831;SDS011;4452;50.756;4.472;2024-01-06T06:23:55;0.63;;;0.63;;
8831;SDS011;4452;50.756;4.472;2024-01-06T06:26:20;1.15;;;1.00;;
8831;SDS011;4452;50.756;4.472;2024-01-06T06:28:46;0.50;;;0.50;;
8831;SDS011;4452;50.756;4.472;2024-01-06T06:31:12;0.88;;;0.88;;
8831;SDS011;4452;50.756;4.472;2024-01-06T06:33:38;0.50;;;0.50;;
8831;SDS011;4452;50.756;4.472;2024-01-06T06:36:04;0.73;;;0.73;;
8831;SDS011;4452;50.756;4.472;2024-01-06T06:38:30;0.75;;;0.75;;
8831;SDS011;4452;50.756;4.472;2024-01-06T06:40:56;1.95;;;1.40;;
8831;SDS011;4452;50.756;4.472;2024-01-06T06:43:21;0.93;;;0.93;;
8831;SDS011;4452;50.756;4.472;2024-01-06T06:45:47;1.13;;;1.13;;
8831;SDS011;4452;50.756;4.472;2024-01-06T06:48:13;0.43;;;0.43;;
8831;SDS011;4452;50.756;4.472;2024-01-06T06:50:38;0.77;;;0.77;;
8831;SDS011;4452;50.756;4.472;2024-01-06T06:53:06;0.60;;;0.60;;
8831;SDS011;4452;50.756;4.472;2024-01-06T06:55:32;0.93;;;0.93;;
8831;SDS011;4452;50.756;4.472;2024-01-06T06:57:58;0.93;;;0.93;;
8831;SDS011;4452;50.756;4.472;2024-01-06T07:00:23;0.70;;;0.70;;
8831;SDS011;4452;50.756;4.472;2024-01-06T07:02:49;1.15;;;1.15;;
8831;SDS011;4452;50.756;4.472;2024-01-06T07:05:15;0.45;;;0.45;;
8831;SDS011;4452;50.756;4.472;2024-01-06T07:07:42;0.77;;;0.77;;
8831;SDS011;4452;50.756;4.472;2024-01-06T07:10:11;5.53;;;2.22;;
8831;SDS011;4452;50.756;4.472;2024-01-06T07:12:38;0.70;;;0.70;;
8831;SDS011;4452;50.756;4.472;2024-01-06T07:15:03;1.00;;;1.00;;
8831;SDS011;4452;50.756;4.472;2024-01-06T07:17:30;0.63;;;0.63;;
8831;SDS011;4452;50.756;4.472;2024-01-06T07:19:55;0.70;;;0.70;;
8831;SDS011;4452;50.756;4.472;2024-01-06T07:22:21;0.65;;;0.65;;
8831;SDS011;4452;50.756;4.472;2024-01-06T07:24:47;0.75;;;0.75;;
8831;SDS011;4452;50.756;4.472;2024-01-06T07:27:13;0.90;;;0.90;;
8831;SDS011;4452;50.756;4.472;2024-01-06T07:29:38;3.50;;;1.63;;
8831;SDS011;4452;50.756;4.472;2024-01-06T07:32:04;1.17;;;1.00;;
8831;SDS011;4452;50.756;4.472;2024-01-06T07:34:31;0.75;;;0.75;;
8831;SDS011;4452;50.756;4.472;2024-01-06T07:36:57;0.80;;;0.80;;
8831;SDS011;4452;50.756;4.472;2024-01-06T07:39:23;0.77;;;0.77;;
8831;SDS011;4452;50.756;4.472;2024-01-06T07:41:49;0.80;;;0.80;;
8831;SDS011;4452;50.756;4.472;2024-01-06T07:44:15;1.52;;;1.38;;
8831;SDS011;4452;50.756;4.472;2024-01-06T07:46:41;9.02;;;3.28;;
8831;SDS011;4452;50.756;4.472;2024-01-06T07:49:07;0.82;;;0.82;;
8831;SDS011;4452;50.756;4.472;2024-01-06T07:51:33;0.80;;;0.80;;
8831;SDS011;4452;50.756;4.472;2024-01-06T07:54:00;1.25;;;1.25;;
8831;SDS011;4452;50.756;4.472;2024-01-06T07:56:26;0.63;;;0.63;;
8831;SDS011;4452;50.756;4.472;2024-01-06T07:58:52;4.05;;;1.80;;
8831;SDS011;4452;50.756;4.472;2024-01-06T08:01:18;0.85;;;0.85;;
8831;SDS011;4452;50.756;4.472;2024-01-06T08:03:43;0.77;;;0.77;;
8831;SDS011;4452;50.756;4.472;2024-01-06T08:06:09;1.85;;;1.75;;
8831;SDS011;4452;50.756;4.472;2024-01-06T08:08:35;0.80;;;0.80;;
8831;SDS011;4452;50.756;4.472;2024-01-06T08:11:01;0.52;;;0.52;;
8831;SDS011;4452;50.756;4.472;2024-01-06T08:13:27;1.23;;;1.23;;
8831;SDS011;4452;50.756;4.472;2024-01-06T08:15:52;0.70;;;0.70;;
8831;SDS011;4452;50.756;4.472;2024-01-06T08:18:18;1.42;;;1.42;;
8831;SDS011;4452;50.756;4.472;2024-01-06T08:20:44;0.73;;;0.73;;
8831;SDS011;4452;50.756;4.472;2024-01-06T08:23:10;0.65;;;0.65;;
8831;SDS011;4452;50.756;4.472;2024-01-06T08:25:36;0.75;;;0.75;;
8831;SDS011;4452;50.756;4.472;2024-01-06T08:28:01;0.95;;;0.95;;
8831;SDS011;4452;50.756;4.472;2024-01-06T08:30:27;0.70;;;0.70;;
8831;SDS011;4452;50.756;4.472;2024-01-06T08:32:53;0.80;;;0.80;;
8831;SDS011;4452;50.756;4.472;2024-01-06T08:35:18;0.90;;;0.90;;
8831;SDS011;4452;50.756;4.472;2024-01-06T08:37:44;0.80;;;0.80;;
8831;SDS011;4452;50.756;4.472;2024-01-06T08:40:10;1.58;;;1.48;;
8831;SDS011;4452;50.756;4.472;2024-01-06T08:42:37;0.77;;;0.77;;
8831;SDS011;4452;50.756;4.472;2024-01-06T08:45:03;4.32;;;2.00;;
8831;SDS011;4452;50.756;4.472;2024-01-06T08:47:30;0.80;;;0.80;;
8831;SDS011;4452;50.756;4.472;2024-01-06T08:49:55;0.95;;;0.95;;
8831;SDS011;4452;50.756;4.472;2024-01-06T08:52:21;0.70;;;0.70;;
8831;SDS011;4452;50.756;4.472;2024-01-06T08:54:47;0.88;;;0.88;;
8831;SDS011;4452;50.756;4.472;2024-01-06T08:57:14;1.20;;;1.20;;
8831;SDS011;4452;50.756;4.472;2024-01-06T08:59:40;1.10;;;1.10;;
8831;SDS011;4452;50.756;4.472;2024-01-06T09:02:06;0.77;;;0.77;;
8831;SDS011;4452;50.756;4.472;2024-01-06T09:04:32;0.77;;;0.77;;
8831;SDS011;4452;50.756;4.472;2024-01-06T09:06:59;1.08;;;1.08;;
8831;SDS011;4452;50.756;4.472;2024-01-06T09:09:24;1.13;;;1.13;;
8831;SDS011;4452;50.756;4.472;2024-01-06T09:11:50;2.97;;;2.00;;
8831;SDS011;4452;50.756;4.472;2024-01-06T09:14:19;1.13;;;1.13;;
8831;SDS011;4452;50.756;4.472;2024-01-06T09:16:44;2.83;;;1.77;;
8831;SDS011;4452;50.756;4.472;2024-01-06T09:19:10;3.13;;;1.80;;
8831;SDS011;4452;50.756;4.472;2024-01-06T09:21:36;0.73;;;0.73;;
8831;SDS011;4452;50.756;4.472;2024-01-06T09:24:02;0.82;;;0.82;;
8831;SDS011;4452;50.756;4.472;2024-01-06T09:26:34;1.00;;;1.00;;
8831;SDS011;4452;50.756;4.472;2024-01-06T09:29:00;0.93;;;0.93;;
8831;SDS011;4452;50.756;4.472;2024-01-06T09:31:26;0.75;;;0.75;;
8831;SDS011;4452;50.756;4.472;2024-01-06T09:33:52;0.75;;;0.75;;
8831;SDS011;4452;50.756;4.472;2024-01-06T09:36:18;0.90;;;0.90;;
8831;SDS011;4452;50.756;4.472;2024-01-06T09:38:44;0.95;;;0.95;;
8831;SDS011;4452;50.756;4.472;2024-01-06T09:41:09;0.98;;;0.98;;
8831;SDS011;4452;50.756;4.472;2024-01-06T09:43:35;0.77;;;0.77;;
8831;SDS011;4452;50.756;4.472;2024-01-06T09:46:06;0.90;;;0.90;;
8831;SDS011;4452;50.756;4.472;2024-01-06T09:48:46;0.60;;;0.60;;
8831;SDS011;4452;50.756;4.472;2024-01-06T09:51:14;0.80;;;0.80;;
8831;SDS011;4452;50.756;4.472;2024-01-06T09:53:48;1.05;;;1.05;;
8831;SDS011;4452;50.756;4.472;2024-01-06T09:56:15;0.63;;;0.63;;
8831;SDS011;4452;50.756;4.472;2024-01-06T09:58:41;0.90;;;0.90;;
8831;SDS011;4452;50.756;4.472;2024-01-06T10:01:07;0.82;;;0.82;;
8831;SDS011;4452;50.756;4.472;2024-01-06T10:03:37;0.65;;;0.65;;
8831;SDS011;4452;50.756;4.472;2024-01-06T10:06:03;1.05;;;1.05;;
8831;SDS011;4452;50.756;4.472;2024-01-06T10:08:29;0.90;;;0.90;;
8831;SDS011;4452;50.756;4.472;2024-01-06T10:10:58;0.90;;;0.90;;
8831;SDS011;4452;50.756;4.472;2024-01-06T10:13:25;0.88;;;0.88;;
8831;SDS011;4452;50.756;4.472;2024-01-06T10:15:51;1.27;;;0.93;;
8831;SDS011;4452;50.756;4.472;2024-01-06T10:18:17;0.80;;;0.80;;
8831;SDS011;4452;50.756;4.472;2024-01-06T10:20:44;0.60;;;0.60;;
8831;SDS011;4452;50.756;4.472;2024-01-06T10:23:10;0.90;;;0.90;;
8831;SDS011;4452;50.756;4.472;2024-01-06T10:25:36;0.70;;;0.70;;
8831;SDS011;4452;50.756;4.472;2024-01-06T10:28:02;1.10;;;1.10;;
8831;SDS011;4452;50.756;4.472;2024-01-06T10:30:28;2.72;;;1.65;;
8831;SDS011;4452;50.756;4.472;2024-01-06T10:32:54;2.35;;;1.40;;
8831;SDS011;4452;50.756;4.472;2024-01-06T10:35:19;0.82;;;0.82;;
8831;SDS011;4452;50.756;4.472;2024-01-06T10:37:46;0.90;;;0.90;;
8831;SDS011;4452;50.756;4.472;2024-01-06T10:40:14;0.75;;;0.75;;
8831;SDS011;4452;50.756;4.472;2024-01-06T10:42:41;0.77;;;0.77;;
8831;SDS011;4452;50.756;4.472;2024-01-06T10:45:08;0.70;;;0.70;;
8831;SDS011;4452;50.756;4.472;2024-01-06T10:47:36;1.35;;;1.35;;
8831;SDS011;4452;50.756;4.472;2024-01-06T10:50:02;0.93;;;0.93;;
8831;SDS011;4452;50.756;4.472;2024-01-06T10:52:29;1.85;;;1.65;;
8831;SDS011;4452;50.756;4.472;2024-01-06T10:54:55;0.77;;;0.77;;
8831;SDS011;4452;50.756;4.472;2024-01-06T10:57:21;0.70;;;0.70;;
8831;SDS011;4452;50.756;4.472;2024-01-06T10:59:51;1.10;;;1.10;;
8831;SDS011;4452;50.756;4.472;2024-01-06T11:02:18;0.85;;;0.85;;
8831;SDS011;4452;50.756;4.472;2024-01-06T11:04:44;1.00;;;1.00;;
8831;SDS011;4452;50.756;4.472;2024-01-06T11:07:11;1.10;;;1.10;;
8831;SDS011;4452;50.756;4.472;2024-01-06T11:09:39;0.88;;;0.88;;
8831;SDS011;4452;50.756;4.472;2024-01-06T11:12:21;0.80;;;0.80;;
8831;SDS011;4452;50.756;4.472;2024-01-06T11:14:47;0.60;;;0.60;;
8831;SDS011;4452;50.756;4.472;2024-01-06T11:17:12;0.73;;;0.73;;
8831;SDS011;4452;50.756;4.472;2024-01-06T11:19:43;0.93;;;0.93;;
8831;SDS011;4452;50.756;4.472;2024-01-06T11:22:19;0.68;;;0.68;;
8831;SDS011;4452;50.756;4.472;2024-01-06T11:24:54;1.60;;;1.60;;
8831;SDS011;4452;50.756;4.472;2024-01-06T11:27:24;1.08;;;1.08;;
8831;SDS011;4452;50.756;4.472;2024-01-06T11:29:54;0.70;;;0.70;;
8831;SDS011;4452;50.756;4.472;2024-01-06T11:34:52;0.90;;;0.90;;
8831;SDS011;4452;50.756;4.472;2024-01-06T11:37:23;0.80;;;0.80;;
8831;SDS011;4452;50.756;4.472;2024-01-06T11:39:51;0.82;;;0.82;;
8831;SDS011;4452;50.756;4.472;2024-01-06T11:42:18;1.00;;;1.00;;
8831;SDS011;4452;50.756;4.472;2024-01-06T11:44:44;2.05;;;1.50;;
8831;SDS011;4452;50.756;4.472;2024-01-06T11:47:14;1.10;;;1.10;;
8831;SDS011;4452;50.756;4.472;2024-01-06T11:49:43;0.80;;;0.80;;
8831;SDS011;4452;50.756;4.472;2024-01-06T11:52:11;0.98;;;0.98;;
8831;SDS011;4452;50.756;4.472;2024-01-06T11:54:37;0.98;;;0.98;;
8831;SDS011;4452;50.756;4.472;2024-01-06T11:57:03;0.88;;;0.88;;
8831;SDS011;4452;50.756;4.472;2024-01-06T11:59:29;1.15;;;1.15;;
8831;SDS011;4452;50.756;4.472;2024-01-06T12:01:55;0.80;;;0.80;;
8831;SDS011;4452;50.756;4.472;2024-01-06T12:04:21;0.82;;;0.82;;
8831;SDS011;4452;50.756;4.472;2024-01-06T12:06:47;1.48;;;1.48;;
8831;SDS011;4452;50.756;4.472;2024-01-06T12:09:13;0.90;;;0.90;;
8831;SDS011;4452;50.756;4.472;2024-01-06T12:11:44;0.85;;;0.85;;
8831;SDS011;4452;50.756;4.472;2024-01-06T12:14:12;0.70;;;0.70;;
8831;SDS011;4452;50.756;4.472;2024-01-06T12:16:38;1.08;;;1.08;;
8831;SDS011;4452;50.756;4.472;2024-01-06T12:19:03;1.27;;;1.27;;
8831;SDS011;4452;50.756;4.472;2024-01-06T12:21:29;1.80;;;1.45;;
8831;SDS011;4452;50.756;4.472;2024-01-06T12:26:40;1.45;;;1.40;;
8831;SDS011;4452;50.756;4.472;2024-01-06T12:29:06;0.70;;;0.70;;
8831;SDS011;4452;50.756;4.472;2024-01-06T12:31:32;0.82;;;0.82;;
8831;SDS011;4452;50.756;4.472;2024-01-06T12:33:58;0.85;;;0.85;;
8831;SDS011;4452;50.756;4.472;2024-01-06T12:36:24;0.90;;;0.90;;
8831;SDS011;4452;50.756;4.472;2024-01-06T12:38:50;0.98;;;0.98;;
8831;SDS011;4452;50.756;4.472;2024-01-06T12:41:16;13.32;;;7.55;;
8831;SDS011;4452;50.756;4.472;2024-01-06T12:43:41;16.63;;;8.75;;
8831;SDS011;4452;50.756;4.472;2024-01-06T12:46:07;14.52;;;8.77;;
8831;SDS011;4452;50.756;4.472;2024-01-06T12:48:33;25.27;;;10.98;;
8831;SDS011;4452;50.756;4.472;2024-01-06T12:50:58;14.02;;;8.10;;
8831;SDS011;4452;50.756;4.472;2024-01-06T12:53:24;16.63;;;9.25;;
8831;SDS011;4452;50.756;4.472;2024-01-06T12:55:50;20.30;;;10.15;;
8831;SDS011;4452;50.756;4.472;2024-01-06T12:58:15;21.02;;;9.77;;
8831;SDS011;4452;50.756;4.472;2024-01-06T13:00:41;17.70;;;7.57;;
8831;SDS011;4452;50.756;4.472;2024-01-06T13:03:07;18.75;;;10.35;;
8831;SDS011;4452;50.756;4.472;2024-01-06T13:05:33;10.82;;;7.10;;
8831;SDS011;4452;50.756;4.472;2024-01-06T13:07:59;36.75;;;10.13;;
8831;SDS011;4452;50.756;4.472;2024-01-06T13:10:26;16.63;;;8.65;;
8831;SDS011;4452;50.756;4.472;2024-01-06T13:12:53;18.80;;;10.43;;
8831;SDS011;4452;50.756;4.472;2024-01-06T13:15:21;19.67;;;9.18;;
8831;SDS011;4452;50.756;4.472;2024-01-06T13:17:50;20.42;;;9.68;;
8831;SDS011;4452;50.756;4.472;2024-01-06T13:20:18;18.13;;;8.95;;
8831;SDS011;4452;50.756;4.472;2024-01-06T13:22:45;17.73;;;9.32;;
8831;SDS011;4452;50.756;4.472;2024-01-06T13:25:14;20.10;;;10.10;;
8831;SDS011;4452;50.756;4.472;2024-01-06T13:27:42;15.00;;;8.82;;
8831;SDS011;4452;50.756;4.472;2024-01-06T13:30:11;16.33;;;8.95;;
8831;SDS011;4452;50.756;4.472;2024-01-06T13:32:39;15.23;;;8.82;;
8831;SDS011;4452;50.756;4.472;2024-01-06T13:35:05;15.27;;;8.68;;
8831;SDS011;4452;50.756;4.472;2024-01-06T13:37:32;17.13;;;9.57;;
8831;SDS011;4452;50.756;4.472;2024-01-06T13:39:58;15.35;;;8.32;;
8831;SDS011;4452;50.756;4.472;2024-01-06T13:42:23;7.30;;;5.97;;
8831;SDS011;4452;50.756;4.472;2024-01-06T13:44:49;16.15;;;9.80;;
8831;SDS011;4452;50.756;4.472;2024-01-06T13:47:15;16.20;;;9.27;;
8831;SDS011;4452;50.756;4.472;2024-01-06T13:49:41;11.35;;;7.10;;
8831;SDS011;4452;50.756;4.472;2024-01-06T13:52:07;13.95;;;7.60;;
8831;SDS011;4452;50.756;4.472;2024-01-06T13:54:34;15.40;;;8.85;;
8831;SDS011;4452;50.756;4.472;2024-01-06T13:57:02;13.93;;;9.27;;
8831;SDS011;4452;50.756;4.472;2024-01-06T13:59:31;18.30;;;9.23;;
8831;SDS011;4452;50.756;4.472;2024-01-06T14:02:03;12.55;;;7.57;;
8831;SDS011;4452;50.756;4.472;2024-01-06T14:04:34;21.05;;;11.07;;
8831;SDS011;4452;50.756;4.472;2024-01-06T14:07:02;14.48;;;9.23;;
8831;SDS011;4452;50.756;4.472;2024-01-06T14:09:31;8.73;;;6.65;;
8831;SDS011;4452;50.756;4.472;2024-01-06T14:12:00;14.48;;;9.30;;
8831;SDS011;4452;50.756;4.472;2024-01-06T14:14:32;12.90;;;8.80;;
8831;SDS011;4452;50.756;4.472;2024-01-06T14:17:03;10.82;;;6.43;;
8831;SDS011;4452;50.756;4.472;2024-01-06T14:19:32;11.15;;;7.68;;
8831;SDS011;4452;50.756;4.472;2024-01-06T14:22:00;9.13;;;6.90;;
8831;SDS011;4452;50.756;4.472;2024-01-06T14:24:30;13.48;;;8.15;;
8831;SDS011;4452;50.756;4.472;2024-01-06T14:26:56;9.95;;;7.20;;
8831;SDS011;4452;50.756;4.472;2024-01-06T14:29:22;10.18;;;7.55;;
8831;SDS011;4452;50.756;4.472;2024-01-06T14:31:48;12.25;;;8.43;;
8831;SDS011;4452;50.756;4.472;2024-01-06T14:34:14;9.57;;;6.55;;
8831;SDS011;4452;50.756;4.472;2024-01-06T14:36:40;10.45;;;7.53;;
8831;SDS011;4452;50.756;4.472;2024-01-06T14:39:13;11.18;;;6.63;;
8831;SDS011;4452;50.756;4.472;2024-01-06T14:41:39;10.68;;;6.85;;
8831;SDS011;4452;50.756;4.472;2024-01-06T14:44:06;10.63;;;6.80;;
8831;SDS011;4452;50.756;4.472;2024-01-06T14:46:32;10.25;;;7.63;;
8831;SDS011;4452;50.756;4.472;2024-01-06T14:49:01;13.57;;;8.30;;
8831;SDS011;4452;50.756;4.472;2024-01-06T14:51:28;11.70;;;8.43;;
8831;SDS011;4452;50.756;4.472;2024-01-06T14:53:53;8.50;;;6.50;;
8831;SDS011;4452;50.756;4.472;2024-01-06T14:56:20;13.60;;;8.40;;
8831;SDS011;4452;50.756;4.472;2024-01-06T14:58:46;15.93;;;7.57;;
8831;SDS011;4452;50.756;4.472;2024-01-06T15:01:12;10.75;;;8.18;;
8831;SDS011;4452;50.756;4.472;2024-01-06T15:03:38;9.52;;;6.57;;
8831;SDS011;4452;50.756;4.472;2024-01-06T15:06:04;11.30;;;7.90;;
8831;SDS011;4452;50.756;4.472;2024-01-06T15:08:30;8.50;;;7.03;;
8831;SDS011;4452;50.756;4.472;2024-01-06T15:10:55;9.20;;;6.65;;
8831;SDS011;4452;50.756;4.472;2024-01-06T15:13:21;12.07;;;8.00;;